Time;durP1;ratioP1;P1;durP2;ratioP2;P2;SDS_P1;SDS_P2;PMS_P1;PMS_P2;Temp;Humidity;BMP_temperature;BMP_pressure;BME280_temperature;BME280_humidity;BME280_pressure;Samples;Min_cycle;Max_cycle;Signal;HPM_P1;HPM_P2
2022/05/22 00:00:21;;;;;;;1.35;1.25;;;;;;;13.77;66.56;95399.98;1682641;85;21051;-66
2022/05/22 00:02:50;;;;;;;3.25;1.67;;;;;;;13.80;65.67;95405.64;1682132;85;21027;-66
2022/05/22 00:05:21;;;;;;;1.87;1.10;;;;;;;13.78;65.73;95401.73;1682419;85;21074;-66
2022/05/22 00:07:47;;;;;;;3.05;1.60;;;;;;;13.79;66.15;95406.57;1682669;85;21034;-66
2022/05/22 00:10:15;;;;;;;2.12;1.40;;;;;;;13.70;66.01;95402.89;1682308;85;21147;-66
2022/05/22 00:12:42;;;;;;;1.52;1.40;;;;;;;13.68;65.50;95403.40;1682500;85;21067;-66
2022/05/22 00:15:12;;;;;;;3.30;1.60;;;;;;;13.62;65.54;95406.66;1682422;85;21054;-66
2022/05/22 00:17:39;;;;;;;3.40;1.60;;;;;;;13.58;64.80;95406.81;1682531;85;21054;-67
2022/05/22 00:20:09;;;;;;;2.08;1.30;;;;;;;13.55;63.98;95410.44;1682367;85;20999;-67
2022/05/22 00:22:37;;;;;;;3.72;1.42;;;;;;;13.58;64.32;95412.11;1682771;85;21047;-67
2022/05/22 00:25:05;;;;;;;4.00;1.45;;;;;;;13.58;64.66;95413.44;1682517;85;21027;-67
2022/05/22 00:27:33;;;;;;;5.90;1.40;;;;;;;13.50;62.70;95405.74;1682547;85;21007;-67
2022/05/22 00:30:00;;;;;;;3.37;1.50;;;;;;;13.50;64.01;95407.06;1682546;85;21042;-67
2022/05/22 00:32:26;;;;;;;4.03;1.40;;;;;;;13.50;63.86;95407.53;1682285;85;21584;-67
2022/05/22 00:34:53;;;;;;;9.13;1.30;;;;;;;13.49;64.27;95405.81;1682431;85;21540;-66
2022/05/22 00:37:21;;;;;;;3.08;1.40;;;;;;;13.50;64.35;95412.37;1682709;85;21038;-66
2022/05/22 00:39:48;;;;;;;1.92;1.65;;;;;;;13.56;64.93;95417.48;1682453;85;21090;-66
2022/05/22 00:42:20;;;;;;;3.30;1.47;;;;;;;13.57;64.99;95411.25;1682510;85;21075;-66
2022/05/22 00:44:48;;;;;;;4.17;1.50;;;;;;;13.58;65.24;95416.98;1682523;85;21034;-66
2022/05/22 00:47:16;;;;;;;3.37;1.30;;;;;;;13.60;64.98;95415.13;1682427;85;21088;-66
2022/05/22 00:49:45;;;;;;;2.00;1.40;;;;;;;13.59;64.68;95417.38;1682489;85;21034;-66
2022/05/22 00:52:18;;;;;;;5.45;1.42;;;;;;;13.54;66.81;95417.98;1682687;85;21008;-66
2022/05/22 00:54:59;;;;;;;3.67;1.60;;;;;;;13.48;65.70;95415.55;1680851;85;21087;-66
2022/05/22 00:57:34;;;;;;;5.45;1.70;;;;;;;13.47;65.73;95418.24;1682567;85;21625;-66
2022/05/22 01:00:08;;;;;;;7.72;1.55;;;;;;;13.49;65.51;95415.09;1682347;85;21100;-65
2022/05/22 01:05:21;;;;;;;3.30;1.72;;;;;;;13.48;65.27;95425.27;1682814;85;21038;-65
2022/05/22 01:07:49;;;;;;;1.42;1.32;;;;;;;13.44;65.15;95424.97;1682749;85;21071;-66
2022/05/22 01:10:16;;;;;;;2.83;1.32;;;;;;;13.37;65.69;95428.27;1682705;85;21493;-66
2022/05/22 01:12:45;;;;;;;4.62;1.45;;;;;;;13.34;65.16;95423.08;1682654;85;20987;-66
2022/05/22 01:15:14;;;;;;;3.17;1.60;;;;;;;13.26;64.84;95421.11;1682646;85;21047;-65
2022/05/22 01:17:45;;;;;;;5.03;1.50;;;;;;;13.25;65.50;95422.00;1653548;85;21059;-66
2022/05/22 01:20:14;;;;;;;5.47;1.40;;;;;;;13.20;64.98;95420.38;1682295;85;21590;-65
2022/05/22 01:22:42;;;;;;;4.78;1.70;;;;;;;13.19;64.95;95419.09;1682738;85;21015;-66
2022/05/22 01:25:10;;;;;;;4.03;1.50;;;;;;;13.15;64.28;95414.80;1682621;85;21038;-65
2022/05/22 01:27:39;;;;;;;1.25;1.15;;;;;;;13.07;64.30;95419.02;1682535;85;21098;-65
2022/05/22 01:30:16;;;;;;;2.70;1.85;;;;;;;12.98;63.66;95410.91;1682346;85;21055;-65
2022/05/22 01:32:47;;;;;;;3.08;1.67;;;;;;;12.88;64.85;95404.16;1682727;85;21019;-65
2022/05/22 01:35:19;;;;;;;1.77;1.50;;;;;;;12.78;65.10;95414.16;1676188;85;21078;-65
2022/05/22 01:37:46;;;;;;;4.33;1.37;;;;;;;12.67;64.41;95408.77;1682901;85;21042;-65
2022/05/22 01:40:16;;;;;;;2.67;1.30;;;;;;;12.54;64.09;95418.39;1682730;85;21035;-66
2022/05/22 01:42:44;;;;;;;1.70;1.50;;;;;;;12.49;64.06;95413.68;1682711;85;21051;-66
2022/05/22 01:45:16;;;;;;;4.35;1.40;;;;;;;12.43;64.66;95413.02;1682715;85;21015;-66
2022/05/22 01:47:43;;;;;;;4.70;1.42;;;;;;;12.32;64.75;95411.97;1682773;85;21078;-66
2022/05/22 01:50:11;;;;;;;6.85;1.65;;;;;;;12.24;64.73;95411.33;1682257;85;21042;-66
2022/05/22 01:52:39;;;;;;;2.45;1.50;;;;;;;12.16;64.79;95413.33;1682620;85;21038;-66
2022/05/22 01:55:09;;;;;;;1.23;1.13;;;;;;;12.13;64.56;95415.14;1676243;85;21046;-65
2022/05/22 01:57:38;;;;;;;1.93;1.40;;;;;;;12.10;65.07;95413.05;1682603;85;21027;-65
2022/05/22 02:00:11;;;;;;;3.10;1.27;;;;;;;12.00;65.28;95416.39;1682583;85;21537;-65
2022/05/22 02:02:44;;;;;;;2.60;1.20;;;;;;;11.89;65.02;95412.72;1682560;85;21030;-65
2022/05/22 02:05:16;;;;;;;4.53;1.40;;;;;;;11.81;66.94;95415.11;1681816;85;21556;-65
2022/05/22 02:10:31;;;;;;;3.97;1.70;;;;;;;11.72;66.70;95417.98;1682692;85;21043;-65
2022/05/22 02:12:58;;;;;;;2.20;1.10;;;;;;;11.68;66.52;95416.74;1682521;85;21473;-66
2022/05/22 02:15:25;;;;;;;2.03;1.20;;;;;;;11.65;65.53;95417.28;1682790;85;21099;-66
2022/05/22 02:17:53;;;;;;;1.70;1.20;;;;;;;11.63;65.89;95410.70;1682486;85;21088;-66
2022/05/22 02:20:21;;;;;;;2.20;1.00;;;;;;;11.59;66.25;95407.75;1682581;85;21004;-66
2022/05/22 02:22:55;;;;;;;3.27;1.40;;;;;;;11.52;66.17;95407.95;1682677;85;21058;-66
2022/05/22 02:25:30;;;;;;;1.60;1.30;;;;;;;11.41;66.14;95402.91;1682669;85;20995;-66
2022/05/22 02:28:00;;;;;;;1.70;1.13;;;;;;;11.35;66.25;95408.35;1682168;85;21151;-65
2022/05/22 02:30:32;;;;;;;1.87;0.80;;;;;;;11.34;66.29;95413.20;1681917;85;21063;-65
2022/05/22 02:32:59;;;;;;;4.15;1.32;;;;;;;11.26;66.18;95405.47;1681566;85;21096;-65
2022/05/22 02:35:28;;;;;;;2.73;1.20;;;;;;;11.10;65.92;95411.58;1681277;85;21074;-65
2022/05/22 02:37:57;;;;;;;2.03;1.10;;;;;;;11.06;65.75;95404.62;1681351;85;21063;-65
2022/05/22 02:40:31;;;;;;;1.80;1.60;;;;;;;10.99;66.15;95410.97;1681455;85;21034;-65
2022/05/22 02:42:58;;;;;;;2.67;1.20;;;;;;;10.90;67.16;95405.89;1681360;85;21051;-65
2022/05/22 02:45:31;;;;;;;1.70;1.20;;;;;;;10.80;68.62;95403.45;1681225;85;21548;-65
2022/05/22 02:47:59;;;;;;;4.80;1.40;;;;;;;10.70;68.40;95424.81;1681684;85;21104;-65
2022/05/22 02:50:30;;;;;;;4.17;1.13;;;;;;;10.66;67.42;95405.55;1680978;85;21302;-65
2022/05/22 02:52:59;;;;;;;1.80;1.20;;;;;;;10.64;67.05;95412.63;1681063;85;21083;-66
2022/05/22 02:55:27;;;;;;;2.30;1.30;;;;;;;10.55;66.45;95411.49;1655863;85;21489;-66
2022/05/22 02:57:55;;;;;;;2.73;0.93;;;;;;;10.48;66.85;95410.78;1681124;85;21046;-66
2022/05/22 03:00:30;;;;;;;2.07;1.30;;;;;;;10.42;69.56;95413.52;1680963;85;21058;-66
2022/05/22 03:02:58;;;;;;;2.10;1.10;;;;;;;10.34;67.98;95408.41;1681357;85;21051;-66
2022/05/22 03:06:37;;;;;;;3.60;1.50;;;;;;;10.34;67.61;95416.33;1681134;85;21039;-66
2022/05/22 03:07:56;;;;;;;3.90;1.17;;;;;;;10.26;67.44;95416.91;1680970;85;21019;-65
2022/05/22 03:10:35;;;;;;;1.33;1.23;;;;;;;10.13;68.67;95417.60;1681468;85;21015;-65
2022/05/22 03:13:04;;;;;;;1.53;1.10;;;;;;;10.02;68.75;95414.74;1681267;85;21042;-65
2022/05/22 03:15:32;;;;;;;1.80;1.30;;;;;;;10.01;69.46;95425.74;1681476;85;21097;-65
2022/05/22 03:17:59;;;;;;;3.07;1.20;;;;;;;9.96;70.57;95415.73;1681488;85;21038;-65
2022/05/22 03:20:25;;;;;;;3.23;1.27;;;;;;;9.93;71.78;95421.07;1681249;85;21098;-65
2022/05/22 03:22:52;;;;;;;5.77;1.57;;;;;;;9.91;71.15;95424.18;1681533;85;21059;-65
2022/05/22 03:25:19;;;;;;;2.53;1.43;;;;;;;9.88;70.89;95425.11;1681407;85;21035;-66
2022/05/22 03:27:46;;;;;;;1.77;1.00;;;;;;;9.87;71.13;95423.80;1681381;85;21027;-65
2022/05/22 03:30:12;;;;;;;1.30;1.20;;;;;;;9.87;70.50;95425.98;1681541;85;21121;-66
2022/05/22 03:32:39;;;;;;;2.43;1.23;;;;;;;9.87;70.99;95423.34;1682427;85;21087;-66
2022/05/22 03:35:07;;;;;;;2.27;1.20;;;;;;;9.89;71.18;95426.83;1682557;85;21556;-66
2022/05/22 03:37:34;;;;;;;1.10;1.00;;;;;;;10.00;71.25;95428.39;1682589;85;21046;-66
2022/05/22 03:40:01;;;;;;;1.87;1.13;;;;;;;10.10;71.97;95426.86;1682426;85;21094;-66
2022/05/22 03:42:28;;;;;;;1.53;1.10;;;;;;;10.26;70.64;95434.05;1682293;85;21046;-66
2022/05/22 03:44:54;;;;;;;3.67;1.30;;;;;;;10.34;70.06;95429.52;1682641;85;21063;-66
2022/05/22 03:47:21;;;;;;;4.23;1.50;;;;;;;10.39;69.36;95430.28;1682645;85;21010;-66
2022/05/22 03:50:10;;;;;;;2.85;1.70;;;;;;;10.53;69.45;95423.42;1682863;85;21514;-66
2022/05/22 03:52:42;;;;;;;3.25;1.57;;;;;;;10.69;69.39;95428.36;1682885;85;21042;-65
2022/05/22 03:55:14;;;;;;;2.90;1.90;;;;;;;10.82;69.07;95420.13;1681033;85;21123;-65
2022/05/22 03:57:46;;;;;;;5.93;3.40;;;;;;;10.83;68.33;95424.52;1682681;85;21058;-65
2022/05/22 04:00:17;;;;;;;8.37;6.87;;;;;;;10.90;68.50;95427.87;1682692;85;21019;-65
2022/05/22 04:02:44;;;;;;;8.30;5.50;;;;;;;10.94;68.51;95430.02;1682452;85;21517;-65
2022/05/22 04:05:13;;;;;;;5.53;4.40;;;;;;;11.03;68.27;95423.18;1682641;85;21043;-65
2022/05/22 04:07:42;;;;;;;8.13;2.67;;;;;;;11.13;68.19;95423.84;1682441;85;21523;-66
2022/05/22 04:10:11;;;;;;;5.70;2.03;;;;;;;11.23;67.99;95431.50;1682568;85;21038;-66
2022/05/22 04:12:39;;;;;;;3.40;1.53;;;;;;;11.33;67.98;95419.41;1682514;85;21004;-66
2022/05/22 04:15:10;;;;;;;1.93;1.73;;;;;;;11.40;67.57;95421.00;1682525;85;21535;-66
2022/05/22 04:17:37;;;;;;;2.83;1.70;;;;;;;11.45;67.93;95423.93;1676279;85;21035;-66
2022/05/22 04:20:07;;;;;;;2.73;2.13;;;;;;;11.54;68.19;95424.17;1682638;85;21515;-66
2022/05/22 04:25:11;;;;;;;3.77;2.60;;;;;;;11.60;68.05;95425.33;1682382;85;21035;-66
2022/05/22 04:25:15;;;;;;;3.20;2.60;;;;;;;11.75;67.58;95428.49;1678373;85;21019;-66
2022/05/22 04:27:43;;;;;;;3.77;2.50;;;;;;;11.84;67.06;95422.52;1682633;85;21059;-65
2022/05/22 04:30:18;;;;;;;3.53;2.20;;;;;;;11.91;67.59;95420.13;1682407;85;21014;-66
2022/05/22 04:32:49;;;;;;;3.33;1.93;;;;;;;11.94;67.40;95421.83;1681057;85;21075;-65
2022/05/22 04:35:17;;;;;;;2.47;2.20;;;;;;;11.90;66.87;95423.70;1681303;85;21035;-65
2022/05/22 04:37:45;;;;;;;3.90;2.77;;;;;;;11.95;67.64;95421.40;1681214;85;21082;-65
2022/05/22 04:40:13;;;;;;;5.40;2.58;;;;;;;12.06;66.83;95419.31;1681464;85;21019;-65
2022/05/22 04:42:41;;;;;;;3.23;2.20;;;;;;;12.13;65.84;95410.31;1681427;85;21038;-65
2022/05/22 04:45:10;;;;;;;2.90;2.00;;;;;;;12.25;65.73;95409.98;1681387;85;20999;-65
2022/05/22 04:47:55;;;;;;;4.12;1.95;;;;;;;12.34;65.14;95407.51;1681329;85;21016;-66
2022/05/22 04:50:24;;;;;;;4.77;2.10;;;;;;;12.47;65.02;95402.73;1680949;85;21047;-66
2022/05/22 04:52:59;;;;;;;3.53;1.80;;;;;;;12.52;63.85;95396.84;1670951;85;21070;-65
2022/05/22 04:55:26;;;;;;;6.47;1.57;;;;;;;12.66;64.19;95397.78;1681556;85;21027;-66
2022/05/22 04:57:53;;;;;;;4.03;1.72;;;;;;;12.83;62.71;95398.60;1681359;85;21076;-66
2022/05/22 05:00:20;;;;;;;2.17;1.70;;;;;;;12.98;63.19;95403.42;1681643;85;20996;-66
2022/05/22 05:02:48;;;;;;;2.75;1.87;;;;;;;13.04;63.20;95398.39;1679647;85;21092;-66
2022/05/22 05:05:15;;;;;;;2.70;1.82;;;;;;;13.10;64.01;95399.51;1681347;85;21446;-66
2022/05/22 05:07:42;;;;;;;2.62;1.40;;;;;;;13.17;63.73;95401.05;1681355;85;21529;-65
2022/05/22 05:10:12;;;;;;;3.47;1.77;;;;;;;13.25;63.81;95397.69;1663871;85;21072;-66
2022/05/22 05:12:43;;;;;;;3.08;2.10;;;;;;;13.33;63.13;95400.13;1681461;85;21047;-65
2022/05/22 05:15:14;;;;;;;3.65;2.20;;;;;;;13.33;63.81;95405.42;1681487;85;21505;-65
2022/05/22 05:17:44;;;;;;;4.15;2.20;;;;;;;13.41;63.46;95402.95;1681495;85;21609;-65
2022/05/22 05:20:16;;;;;;;6.72;2.35;;;;;;;13.51;63.80;95403.98;1656504;85;21497;-66
2022/05/22 05:22:45;;;;;;;4.08;2.37;;;;;;;13.60;64.33;95400.54;1681118;85;21064;-65
2022/05/22 05:25:15;;;;;;;4.87;2.55;;;;;;;13.63;65.01;95408.42;1681414;85;21030;-65
2022/05/22 05:27:42;;;;;;;7.03;2.70;;;;;;;13.73;64.58;95407.62;1681285;85;21545;-66
2022/05/22 05:30:12;;;;;;;2.70;2.30;;;;;;;13.85;64.72;95407.20;1680790;85;21034;-65
2022/05/22 05:32:41;;;;;;;2.72;2.42;;;;;;;13.94;63.87;95414.47;1654704;85;21062;-66
2022/05/22 05:35:11;;;;;;;3.62;2.70;;;;;;;14.05;64.20;95410.96;1682665;85;21059;-66
2022/05/22 05:37:39;;;;;;;4.65;2.72;;;;;;;14.18;64.13;95408.73;1682439;85;21038;-66
2022/05/22 05:40:14;;;;;;;5.67;2.33;;;;;;;14.31;63.66;95414.00;1682784;85;21031;-66
2022/05/22 05:42:43;;;;;;;8.20;3.00;;;;;;;14.44;62.21;95421.09;1682633;85;21039;-66
2022/05/22 05:45:13;;;;;;;2.17;1.98;;;;;;;14.53;61.18;95418.55;1682925;85;21050;-66
2022/05/22 05:47:51;;;;;;;2.65;2.00;;;;;;;14.62;59.32;95415.13;1681962;85;21513;-65
2022/05/22 05:50:26;;;;;;;3.47;2.00;;;;;;;14.76;59.72;95409.75;1682451;85;21501;-65
2022/05/22 05:53:00;;;;;;;3.60;1.90;;;;;;;14.86;56.69;95404.02;1682246;85;21090;-65
2022/05/22 05:55:47;;;;;;;3.35;1.80;;;;;;;15.04;56.07;95410.41;1682595;85;21055;-65
2022/05/22 05:58:24;;;;;;;4.58;1.87;;;;;;;15.32;54.65;95406.22;1661407;85;21058;-65
2022/05/22 06:00:53;;;;;;;4.55;1.67;;;;;;;15.55;53.64;95411.94;1682706;85;21094;-65
2022/05/22 06:03:20;;;;;;;3.80;1.85;;;;;;;15.77;52.41;95411.95;1682812;85;21019;-65
2022/05/22 06:05:49;;;;;;;2.35;1.60;;;;;;;15.87;50.85;95403.09;1682453;85;21516;-66
2022/05/22 06:08:17;;;;;;;3.37;1.70;;;;;;;16.11;50.57;95399.00;1680464;85;21058;-66
2022/05/22 06:10:44;;;;;;;2.87;1.40;;;;;;;16.35;50.16;95403.70;1682776;85;21031;-66
2022/05/22 06:13:15;;;;;;;2.55;1.32;;;;;;;16.46;49.59;95412.09;1682478;85;20995;-66
2022/05/22 06:15:42;;;;;;;2.95;1.50;;;;;;;16.53;49.53;95408.22;1682488;85;21533;-66
2022/05/22 06:18:09;;;;;;;4.47;1.52;;;;;;;16.60;48.43;95410.98;1682873;85;21003;-66
2022/05/22 06:20:36;;;;;;;2.22;1.57;;;;;;;16.60;47.52;95405.66;1682700;85;21007;-66
2022/05/22 06:23:05;;;;;;;1.98;1.50;;;;;;;16.72;48.30;95399.39;1680350;85;21645;-66
2022/05/22 06:25:50;;;;;;;3.60;1.42;;;;;;;16.91;46.57;95400.75;1682708;85;21067;-65
2022/05/22 06:28:28;;;;;;;1.65;1.37;;;;;;;17.07;46.42;95391.98;1619524;88;21595;-65
2022/05/22 06:31:11;;;;;;;3.65;1.60;;;;;;;17.10;46.48;95397.63;1682041;84;21035;-65
2022/05/22 06:33:51;;;;;;;;;;;;;;;17.04;46.26;95393.45;1682893;85;21086;-65
2022/05/22 06:36:36;;;;;;;2.15;1.65;;;;;;;16.94;45.98;95393.97;1681051;85;20107;-65
2022/05/22 06:41:53;;;;;;;2.52;1.45;;;;;;;16.98;45.70;95388.88;1681569;85;21015;-65
2022/05/22 06:44:21;;;;;;;4.95;1.60;;;;;;;17.15;45.58;95390.75;1680961;85;21047;-65
2022/05/22 06:46:55;;;;;;;1.72;1.47;;;;;;;17.11;45.05;95398.05;1655252;85;21026;-66
2022/05/22 06:49:43;;;;;;;5.30;1.57;;;;;;;17.10;46.67;95401.62;1681117;85;21187;-66
2022/05/22 06:52:28;;;;;;;2.00;1.40;;;;;;;17.18;47.27;95388.79;1681131;85;21521;-66
2022/05/22 06:54:56;;;;;;;4.10;1.50;;;;;;;17.24;47.44;95395.18;1679204;85;21083;-66
2022/05/22 06:57:29;;;;;;;3.67;1.92;;;;;;;17.52;47.04;95389.37;1646667;85;21564;-66
2022/05/22 07:00:14;;;;;;;4.92;1.50;;;;;;;17.71;45.60;95390.67;1681178;85;21517;-66
2022/05/22 07:02:44;;;;;;;3.62;1.77;;;;;;;17.69;42.83;95385.02;1659904;85;21074;-65
2022/05/22 07:05:13;;;;;;;2.70;2.10;;;;;;;17.61;44.31;95385.37;1658827;85;21034;-65
2022/05/22 07:07:47;;;;;;;2.72;1.80;;;;;;;17.77;43.94;95373.95;1671176;85;21074;-65
2022/05/22 07:13:19;;;;;;;2.20;1.40;;;;;;;17.95;43.74;95378.38;1677548;85;21557;-66
2022/05/22 07:16:04;;;;;;;2.77;1.40;;;;;;;18.01;42.65;95377.20;1681452;85;21477;-65
2022/05/22 07:18:33;;;;;;;2.20;1.52;;;;;;;18.01;42.99;95376.72;1680546;85;21095;-66
2022/05/22 07:21:01;;;;;;;1.98;1.50;;;;;;;18.23;41.57;95386.31;1681266;85;21026;-66
2022/05/22 07:23:30;;;;;;;3.77;1.55;;;;;;;18.20;42.38;95381.14;1679254;85;21043;-66
2022/05/22 07:26:13;;;;;;;3.30;1.20;;;;;;;18.33;42.59;95375.54;1681135;85;21524;-66
2022/05/22 07:28:42;;;;;;;2.77;1.12;;;;;;;18.44;40.57;95378.97;1681170;85;21528;-66
2022/05/22 07:31:27;;;;;;;1.25;1.07;;;;;;;18.50;39.36;95365.30;1681188;85;21145;-66
2022/05/22 07:34:13;;;;;;;2.30;1.10;;;;;;;18.18;39.05;95367.00;1680001;85;21549;-66
2022/05/22 07:37:06;;;;;;;1.42;1.00;;;;;;;18.11;38.87;95373.97;1640381;85;21068;-66
2022/05/22 07:39:52;;;;;;;1.40;1.17;;;;;;;18.01;41.24;95374.53;1679834;85;21027;-66
2022/05/22 07:42:23;;;;;;;1.40;1.00;;;;;;;18.03;40.05;95376.18;1680118;85;21055;-65
2022/05/22 07:45:12;;;;;;;1.95;1.25;;;;;;;17.83;40.02;95373.19;1680153;85;21036;-65
2022/05/22 07:47:46;;;;;;;3.70;1.22;;;;;;;17.65;43.17;95376.76;1677794;85;21059;-65
2022/05/22 07:50:18;;;;;;;2.83;1.00;;;;;;;17.71;40.69;95372.44;1678972;85;21007;-66
2022/05/22 07:52:46;;;;;;;1.12;0.90;;;;;;;17.76;40.79;95371.73;1679730;85;21032;-65
2022/05/22 07:55:20;;;;;;;2.55;0.88;;;;;;;17.98;40.55;95370.21;1679721;85;21097;-66
2022/05/22 07:57:57;;;;;;;1.67;1.20;;;;;;;18.37;41.05;95366.43;1659960;85;21070;-65
2022/05/22 08:00:28;;;;;;;1.87;1.00;;;;;;;18.57;39.05;95357.33;1678452;85;21031;-66
2022/05/22 08:02:56;;;;;;;3.62;1.22;;;;;;;18.51;39.70;95362.53;1679612;85;21047;-66
2022/05/22 08:05:24;;;;;;;1.70;1.25;;;;;;;18.59;39.52;95352.77;1679864;85;21493;-66
2022/05/22 08:07:52;;;;;;;2.77;1.00;;;;;;;18.56;39.00;95352.94;1679331;85;21051;-66
2022/05/22 08:10:40;;;;;;;2.55;1.00;;;;;;;18.34;38.87;95353.21;1679945;85;21528;-66
2022/05/22 08:13:11;;;;;;;3.17;1.00;;;;;;;18.30;39.30;95357.87;1679861;85;21533;-66
2022/05/22 08:15:40;;;;;;;1.75;1.20;;;;;;;18.07;40.08;95363.55;1679852;85;21034;-66
2022/05/22 08:18:17;;;;;;;2.72;1.10;;;;;;;17.96;40.31;95362.75;1660147;85;21499;-66
2022/05/22 08:20:44;;;;;;;2.37;1.20;;;;;;;18.03;39.95;95356.16;1679718;85;21078;-66
2022/05/22 08:23:20;;;;;;;2.50;1.15;;;;;;;18.15;40.57;95352.86;1679855;85;21091;-66
2022/05/22 08:25:51;;;;;;;2.10;1.80;;;;;;;18.54;41.21;95341.46;1679560;85;21501;-66
2022/05/22 08:28:18;;;;;;;2.33;1.10;;;;;;;18.99;38.53;95346.13;1679999;85;21102;-66
2022/05/22 08:30:45;;;;;;;2.25;0.90;;;;;;;19.21;39.15;95339.11;1679964;85;21111;-65
2022/05/22 08:33:14;;;;;;;1.80;1.40;;;;;;;19.25;39.47;95337.11;1676439;85;21066;-66
2022/05/22 08:35:44;;;;;;;1.90;1.17;;;;;;;19.41;40.28;95337.97;1682498;85;21075;-66
2022/05/22 08:38:11;;;;;;;2.10;1.20;;;;;;;19.40;37.08;95338.94;1682565;85;21114;-66
2022/05/22 08:41:13;;;;;;;2.08;1.10;;;;;;;19.30;38.20;95333.70;1682658;85;21122;-66
2022/05/22 08:44:14;;;;;;;2.87;1.10;;;;;;;19.23;38.95;95324.33;1679698;85;21565;-66
2022/05/22 08:47:01;;;;;;;2.27;1.20;;;;;;;19.38;39.87;95334.63;1682758;85;21015;-66
2022/05/22 08:49:45;;;;;;;1.55;1.00;;;;;;;19.43;37.99;95332.55;1682654;85;21058;-66
2022/05/22 08:52:46;;;;;;;3.77;1.00;;;;;;;19.25;37.59;95331.77;1682885;85;21047;-66
2022/05/22 08:55:24;;;;;;;4.50;1.40;;;;;;;19.11;39.29;95331.70;1682800;85;21159;-66
2022/05/22 09:00:57;;;;;;;2.85;1.20;;;;;;;19.40;37.84;95321.55;1682931;85;21039;-66
2022/05/22 09:03:35;;;;;;;3.15;1.10;;;;;;;19.68;39.33;95314.63;1677064;85;21407;-66
2022/05/22 09:06:05;;;;;;;1.60;1.00;;;;;;;19.96;38.43;95316.97;1682556;85;21047;-66
2022/05/22 09:08:46;;;;;;;1.57;1.12;;;;;;;20.12;37.27;95304.39;1682530;85;21122;-66
2022/05/22 09:11:31;;;;;;;3.67;1.42;;;;;;;20.38;38.52;95300.09;1681900;85;21039;-66
2022/05/22 09:14:24;;;;;;;1.57;1.20;;;;;;;20.60;37.99;95304.17;1645826;85;21082;-66
2022/05/22 09:17:03;;;;;;;;;;;;;;;20.79;36.79;95294.47;1685276;85;21007;-66
2022/05/22 09:19:44;;;;;;;1.12;0.95;;;;;;;20.87;37.59;95296.20;1682812;85;20109;-66
2022/05/22 09:22:31;;;;;;;3.60;1.10;;;;;;;21.07;38.75;95289.08;1682714;85;21488;-66
2022/05/22 09:25:07;;;;;;;2.52;1.20;;;;;;;21.09;36.88;95291.19;1682287;85;21059;-66
2022/05/22 09:28:02;;;;;;;2.62;1.35;;;;;;;21.18;36.38;95287.88;1682829;85;21167;-67
2022/05/22 09:30:49;;;;;;;2.42;1.47;;;;;;;21.39;35.25;95287.45;1682794;85;21015;-67
2022/05/22 09:33:50;;;;;;;2.08;1.60;;;;;;;21.55;36.79;95290.86;1681353;85;21114;-66
2022/05/22 09:36:53;;;;;;;3.27;1.52;;;;;;;21.15;34.67;95292.11;1680711;85;21059;-66
2022/05/22 09:39:45;;;;;;;2.60;1.70;;;;;;;20.47;37.63;95290.64;1681519;85;21122;-66
2022/05/22 09:42:38;;;;;;;2.40;1.62;;;;;;;20.26;37.77;95292.81;1681124;85;21067;-66
2022/05/22 09:45:28;;;;;;;3.52;1.50;;;;;;;20.12;38.44;95283.45;1680975;85;21522;-66
2022/05/22 09:48:25;;;;;;;7.03;3.42;;;;;;;19.81;38.78;95293.34;1681419;85;21050;-66
2022/05/22 09:51:03;;;;;;;3.05;2.30;;;;;;;19.55;38.80;95287.66;1681156;85;21071;-66
2022/05/22 09:54:03;;;;;;;3.25;2.17;;;;;;;19.28;39.78;95286.59;1681298;85;21011;-66
2022/05/22 09:56:37;;;;;;;3.62;1.30;;;;;;;19.20;40.43;95285.69;1681110;85;21083;-66
2022/05/22 09:59:29;;;;;;;2.12;1.40;;;;;;;19.03;40.38;95283.52;1681499;85;21035;-66
2022/05/22 10:01:59;;;;;;;3.08;1.40;;;;;;;18.93;41.94;95282.32;1681356;85;21043;-66
2022/05/22 10:04:46;;;;;;;2.33;1.40;;;;;;;18.94;41.28;95284.52;1681589;85;21517;-67
2022/05/22 10:07:20;;;;;;;2.37;1.50;;;;;;;19.02;40.22;95283.15;1681041;85;21545;-66
2022/05/22 10:10:13;;;;;;;4.58;1.40;;;;;;;19.31;40.73;95281.94;1681409;85;21035;-66
2022/05/22 10:13:10;;;;;;;1.55;1.35;;;;;;;19.71;40.60;95286.81;1681314;85;21537;-66
2022/05/22 10:15:54;;;;;;;3.12;1.62;;;;;;;19.87;39.74;95280.91;1681470;85;21027;-66
2022/05/22 10:19:08;;;;;;;2.22;1.40;;;;;;;19.87;39.84;95287.60;1681471;85;21075;-66
2022/05/22 10:21:55;;;;;;;1.85;1.32;;;;;;;19.84;39.59;95283.30;1681422;85;21007;-66
2022/05/22 10:24:45;;;;;;;2.12;1.45;;;;;;;19.73;40.39;95282.20;1681444;85;21046;-66
2022/05/22 10:27:51;;;;;;;2.75;1.80;;;;;;;19.45;39.96;95282.01;1681594;85;21549;-66
2022/05/22 10:30:31;;;;;;;3.10;1.90;;;;;;;19.36;39.90;95283.02;1681663;85;21050;-66
2022/05/22 10:33:24;;;;;;;3.98;1.50;;;;;;;19.29;40.61;95284.31;1680778;85;21103;-66
2022/05/22 10:36:13;;;;;;;3.58;1.67;;;;;;;19.43;40.82;95281.71;1679933;85;21051;-66
2022/05/22 10:39:03;;;;;;;2.35;1.30;;;;;;;19.56;40.44;95286.72;1679789;85;21046;-66
2022/05/22 10:44:22;;;;;;;2.33;1.30;;;;;;;19.73;38.83;95274.17;1680006;85;21015;-67
2022/05/22 10:46:53;;;;;;;2.35;1.30;;;;;;;19.84;37.89;95283.78;1679889;85;21568;-67
2022/05/22 10:49:24;;;;;;;2.87;1.40;;;;;;;19.88;38.79;95279.49;1679732;85;21030;-66
2022/05/22 10:52:00;;;;;;;3.45;1.77;;;;;;;19.86;38.56;95278.71;1679667;85;21122;-66
2022/05/22 10:54:38;;;;;;;3.00;1.40;;;;;;;19.88;38.79;95270.56;1679754;85;21078;-66
2022/05/22 10:57:16;;;;;;;3.52;1.50;;;;;;;19.85;37.49;95269.42;1679084;85;21063;-66
2022/05/22 10:59:44;;;;;;;1.98;1.77;;;;;;;19.86;38.87;95272.50;1680249;85;21079;-66
2022/05/22 11:02:27;;;;;;;2.33;1.60;;;;;;;19.92;39.32;95279.30;1679860;85;21521;-66
2022/05/22 11:04:56;;;;;;;2.67;1.60;;;;;;;20.17;38.53;95276.84;1679703;85;21039;-66
2022/05/22 11:07:36;;;;;;;2.62;1.80;;;;;;;20.43;37.82;95269.00;1679861;85;21520;-66
2022/05/22 11:10:24;;;;;;;2.40;1.70;;;;;;;20.88;38.65;95268.41;1678768;85;21046;-66
2022/05/22 11:13:12;;;;;;;2.47;1.85;;;;;;;21.45;37.18;95268.28;1680070;85;21043;-66
2022/05/22 11:15:43;;;;;;;4.97;2.02;;;;;;;21.73;36.36;95268.63;1679943;85;21031;-67
2022/05/22 11:18:22;;;;;;;2.80;1.50;;;;;;;21.49;35.99;95259.53;1677380;85;21051;-67
2022/05/22 11:21:05;;;;;;;4.78;2.00;;;;;;;21.15;35.41;95261.74;1679758;85;21066;-66
2022/05/22 11:23:58;;;;;;;4.28;2.62;;;;;;;20.73;36.00;95259.05;1654618;85;21015;-67
2022/05/22 11:27:00;;;;;;;5.12;1.80;;;;;;;20.73;36.00;95259.05;1679777;85;21166;-66
2022/05/22 11:29:59;;;;;;;3.67;2.20;;;;;;;20.51;36.35;95259.99;1679910;85;21026;-66
2022/05/22 11:32:46;;;;;;;3.65;1.57;;;;;;;20.46;36.09;95256.74;1679730;85;21058;-66
2022/05/22 11:35:24;;;;;;;3.02;1.65;;;;;;;20.42;35.28;95247.19;1682673;85;21047;-66
2022/05/22 11:38:22;;;;;;;4.15;1.40;;;;;;;20.49;36.60;95245.86;1682764;85;21007;-66
2022/05/22 11:41:22;;;;;;;3.52;1.30;;;;;;;20.74;36.75;95245.19;1682662;85;21027;-66
2022/05/22 11:44:22;;;;;;;1.50;1.40;;;;;;;20.93;36.07;95228.75;1682622;85;21091;-66
2022/05/22 11:47:06;;;;;;;8.58;3.80;;;;;;;21.47;35.56;95215.36;1682742;85;21123;-66
2022/05/22 11:49:41;;;;;;;3.80;1.67;;;;;;;21.71;35.62;95200.73;1682273;85;21011;-66
2022/05/22 11:52:55;;;;;;;5.03;2.45;;;;;;;22.16;33.96;95203.02;1643592;85;21019;-66
2022/05/22 11:55:33;;;;;;;6.72;2.00;;;;;;;21.72;32.84;95206.95;1682413;85;21565;-67
2022/05/22 11:58:23;;;;;;;2.33;1.70;;;;;;;21.22;34.50;95211.20;1682698;85;21047;-66
2022/05/22 12:01:11;;;;;;;5.05;1.35;;;;;;;21.73;36.82;95201.98;1682633;85;21015;-67
2022/05/22 12:04:17;;;;;;;4.47;1.47;;;;;;;22.73;32.30;95198.50;1682345;85;21137;-66
2022/05/22 12:06:58;;;;;;;3.67;1.55;;;;;;;23.26;32.52;95200.42;1682548;85;21533;-66
2022/05/22 12:09:56;;;;;;;1.67;1.50;;;;;;;23.24;31.98;95206.40;1682227;85;21046;-66
2022/05/22 12:12:49;;;;;;;1.98;1.30;;;;;;;23.76;32.39;95204.28;1682316;85;21039;-66
2022/05/22 12:15:53;;;;;;;2.30;1.50;;;;;;;24.87;29.87;95200.97;1682826;85;21066;-66
2022/05/22 12:18:43;;;;;;;3.02;1.40;;;;;;;25.43;28.17;95206.27;1682365;85;21070;-66
2022/05/22 12:21:45;;;;;;;2.37;1.20;;;;;;;25.48;25.97;95200.84;1681643;85;21669;-67
2022/05/22 12:24:51;;;;;;;3.80;1.53;;;;;;;24.35;27.60;95196.06;1682417;85;21047;-67
2022/05/22 12:27:27;;;;;;;3.98;1.52;;;;;;;24.13;31.88;95200.94;1682404;85;21078;-66
2022/05/22 12:30:18;;;;;;;1.95;1.12;;;;;;;24.54;30.60;95191.42;1682673;85;21529;-67